Time;durP1;ratioP1;P1;durP2;ratioP2;P2;SDS_P1;SDS_P2;PMS_P1;PMS_P2;Temp;Humidity;BMP_temperature;BMP_pressure;BME280_temperature;BME280_humidity;BME280_pressure;Samples;Min_cycle;Max_cycle;Signal;HPM_P1;HPM_P2
2023/08/22 00:00:18;;;;;;;1.83;1.45;;;;;;;29.73;53.62;100826.47;4912777;28;70238;-38
2023/08/22 00:02:48;;;;;;;1.73;1.55;;;;;;;29.75;53.99;100824.34;4919194;28;66806;-37
2023/08/22 00:05:18;;;;;;;3.28;1.50;;;;;;;29.78;54.67;100834.75;4886635;28;70035;-38
2023/08/22 00:07:49;;;;;;;4.45;4.10;;;;;;;29.84;56.54;100831.19;4906067;28;66871;-40
2023/08/22 00:10:20;;;;;;;5.80;5.03;;;;;;;29.88;57.89;100833.47;4915834;28;70142;-37
2023/08/22 00:12:50;;;;;;;7.88;6.55;;;;;;;29.95;59.88;100834.25;4905728;28;66334;-37
2023/08/22 00:15:20;;;;;;;8.10;7.40;;;;;;;29.99;63.28;100841.72;4905653;28;70880;-37
2023/08/22 00:17:50;;;;;;;12.50;8.95;;;;;;;30.05;63.83;100840.84;4894722;28;65717;-36
2023/08/22 00:20:22;;;;;;;9.98;7.78;;;;;;;30.09;69.59;100841.28;4911664;28;70341;-36
2023/08/22 00:22:52;;;;;;;18.02;10.32;;;;;;;30.09;69.23;100835.88;4908392;28;66384;-36
2023/08/22 00:25:22;;;;;;;18.38;10.98;;;;;;;30.15;68.02;100835.00;4889306;28;69977;-36
2023/08/22 00:27:53;;;;;;;17.63;10.70;;;;;;;30.23;68.62;100837.47;4911050;28;66370;-36
2023/08/22 00:30:23;;;;;;;11.15;9.50;;;;;;;30.27;68.78;100843.28;4903300;28;70650;-36
2023/08/22 00:32:54;;;;;;;8.30;7.13;;;;;;;30.30;68.26;100842.03;4912397;28;66285;-37
2023/08/22 00:35:28;;;;;;;7.27;6.57;;;;;;;30.19;68.29;100830.78;4912510;28;70259;-36
2023/08/22 00:37:58;;;;;;;7.28;6.65;;;;;;;30.35;68.07;100839.50;4911454;28;65685;-36
2023/08/22 00:40:29;;;;;;;16.55;7.95;;;;;;;30.39;68.19;100841.53;4904170;28;69045;-38
2023/08/22 00:42:59;;;;;;;8.48;7.45;;;;;;;30.41;68.37;100836.72;4908662;28;65796;-37
2023/08/22 00:45:29;;;;;;;14.18;8.75;;;;;;;30.45;70.03;100842.53;4907550;28;70825;-38
2023/08/22 00:47:59;;;;;;;12.60;8.57;;;;;;;30.43;72.98;100845.47;4915853;28;65492;-37
2023/08/22 00:50:30;;;;;;;8.18;7.10;;;;;;;30.46;69.41;100844.22;4907815;28;69589;-38
2023/08/22 00:53:01;;;;;;;7.97;7.35;;;;;;;30.39;68.84;100830.69;4908387;28;66646;-39
2023/08/22 00:55:31;;;;;;;7.63;6.90;;;;;;;30.47;68.36;100853.97;4910100;28;69877;-39
2023/08/22 00:58:02;;;;;;;9.90;6.85;;;;;;;30.47;67.99;100843.16;4912681;28;67107;-39
2023/08/22 01:00:32;;;;;;;7.38;6.72;;;;;;;30.54;68.03;100854.78;4892657;28;69602;-40
2023/08/22 01:03:03;;;;;;;7.68;6.97;;;;;;;30.46;67.91;100836.09;4894752;28;66579;-38
2023/08/22 01:05:38;;;;;;;9.70;7.22;;;;;;;30.57;67.48;100859.75;4915453;28;70313;-39
2023/08/22 01:08:25;;;;;;;8.07;6.53;;;;;;;30.22;67.37;100803.34;4900761;28;66884;-39
2023/08/22 01:10:59;;;;;;;9.35;6.47;;;;;;;30.62;66.99;100857.22;4909655;28;70749;-39
2023/08/22 01:13:33;;;;;;;7.93;6.45;;;;;;;30.58;67.07;100850.56;4907203;28;66022;-39
2023/08/22 01:16:05;;;;;;;7.55;6.93;;;;;;;30.49;66.62;100832.94;4906243;28;70759;-39
2023/08/22 01:18:36;;;;;;;7.57;6.82;;;;;;;30.66;66.92;100858.44;4896823;28;65363;-39
2023/08/22 01:21:06;;;;;;;8.52;6.85;;;;;;;30.67;66.45;100854.69;4907833;28;69299;-39
2023/08/22 01:23:37;;;;;;;7.88;6.78;;;;;;;30.70;66.92;100854.25;4913371;28;66552;-39
2023/08/22 01:26:07;;;;;;;9.75;6.68;;;;;;;30.72;66.72;100862.94;4914480;28;70812;-38
2023/08/22 01:28:43;;;;;;;7.93;6.55;;;;;;;30.67;66.37;100840.28;4917680;28;66309;-38
2023/08/22 01:31:33;;;;;;;6.72;6.13;;;;;;;30.76;66.70;100854.38;4910525;28;69814;-38
2023/08/22 01:34:04;;;;;;;7.75;6.40;;;;;;;30.78;66.41;100855.00;4914277;28;65343;-40
2023/08/22 01:36:37;;;;;;;7.43;6.73;;;;;;;30.41;66.50;100795.31;4899951;28;70397;-39
2023/08/22 01:39:09;;;;;;;9.52;6.72;;;;;;;30.80;66.37;100852.94;4891274;28;66179;-38
2023/08/22 01:41:40;;;;;;;6.85;6.38;;;;;;;30.84;66.49;100859.56;4912697;28;70783;-39
2023/08/22 01:44:10;;;;;;;6.45;5.85;;;;;;;30.84;66.56;100862.28;4913104;28;65174;-39
2023/08/22 01:46:40;;;;;;;7.57;6.50;;;;;;;30.86;66.57;100862.91;4919547;28;69546;-38
2023/08/22 01:49:12;;;;;;;6.57;6.07;;;;;;;30.86;66.49;100857.47;4892093;28;66807;-38
2023/08/22 01:51:43;;;;;;;5.95;5.50;;;;;;;30.90;66.54;100858.72;4898103;28;70200;-38
2023/08/22 01:54:14;;;;;;;6.32;5.93;;;;;;;30.85;66.69;100847.69;4906034;28;66196;-39
2023/08/22 01:56:46;;;;;;;6.65;5.97;;;;;;;30.90;66.96;100853.28;4907983;28;70373;-39
2023/08/22 01:59:16;;;;;;;6.18;5.68;;;;;;;30.85;66.73;100839.56;4915933;28;66571;-39
2023/08/22 02:01:46;;;;;;;6.03;5.63;;;;;;;30.91;66.87;100844.09;4902621;28;70536;-39
2023/08/22 02:04:16;;;;;;;6.10;5.53;;;;;;;30.99;66.89;100867.38;4905376;28;66243;-38
2023/08/22 02:06:47;;;;;;;6.60;5.90;;;;;;;31.01;66.86;100857.13;4901706;28;69428;-40
2023/08/22 02:09:21;;;;;;;6.60;6.10;;;;;;;31.03;66.80;100857.75;4896641;28;66789;-40
2023/08/22 02:11:52;;;;;;;6.07;5.53;;;;;;;31.04;66.51;100849.41;4909507;28;69703;-38
2023/08/22 02:14:22;;;;;;;6.22;5.72;;;;;;;31.05;66.76;100856.47;4920060;28;66578;-38
2023/08/22 02:16:52;;;;;;;9.20;5.78;;;;;;;31.06;66.82;100849.19;4894338;28;70411;-38
2023/08/22 02:19:22;;;;;;;5.80;5.38;;;;;;;31.10;66.55;100851.22;4899128;28;65346;-39
2023/08/22 02:21:53;;;;;;;5.53;5.13;;;;;;;31.12;66.61;100859.97;4896070;28;69241;-38
2023/08/22 02:24:23;;;;;;;5.90;5.40;;;;;;;31.14;66.44;100851.59;4899629;28;66435;-39
2023/08/22 02:26:54;;;;;;;5.72;5.38;;;;;;;31.00;66.17;100812.97;4919190;28;69940;-39
2023/08/22 02:29:24;;;;;;;6.03;5.63;;;;;;;31.14;66.20;100838.88;4912764;28;65554;-38
2023/08/22 02:31:54;;;;;;;5.70;5.30;;;;;;;31.16;66.04;100822.41;4914310;28;70014;-39
2023/08/22 02:34:26;;;;;;;6.78;6.10;;;;;;;30.97;65.93;100799.88;4913780;28;65868;-38
2023/08/22 02:36:56;;;;;;;6.63;5.50;;;;;;;31.23;66.01;100836.72;4917220;28;69085;-39
2023/08/22 02:39:27;;;;;;;5.72;5.32;;;;;;;31.26;66.00;100836.28;4914053;28;65463;-39
2023/08/22 02:41:57;;;;;;;7.28;5.30;;;;;;;31.25;66.25;100828.38;4896694;28;70217;-40
2023/08/22 02:44:27;;;;;;;6.03;5.53;;;;;;;31.29;65.98;100829.59;4900615;28;67009;-40
2023/08/22 02:46:57;;;;;;;6.07;5.57;;;;;;;31.31;66.19;100824.75;4908203;28;69702;-39
2023/08/22 02:49:28;;;;;;;10.48;5.28;;;;;;;31.33;66.21;100819.94;4906008;28;65926;-39
2023/08/22 02:51:58;;;;;;;6.05;5.45;;;;;;;31.34;65.94;100819.72;4920537;28;69678;-39
2023/08/22 02:54:28;;;;;;;6.50;5.72;;;;;;;31.32;65.69;100818.28;4906169;28;65552;-38
2023/08/22 02:56:58;;;;;;;4.70;4.40;;;;;;;31.37;65.81;100826.59;4910206;28;70579;-38
2023/08/22 02:59:29;;;;;;;5.72;5.20;;;;;;;31.30;65.42;100806.84;4902021;28;66216;-39
2023/08/22 03:01:59;;;;;;;6.30;4.85;;;;;;;31.40;65.59;100826.16;4914072;28;70239;-39
2023/08/22 03:04:30;;;;;;;5.70;5.18;;;;;;;31.39;65.44;100819.06;4905126;28;66227;-38
2023/08/22 03:07:01;;;;;;;;;;;;;;;31.21;67.15;100827.16;4915888;28;70374;-38
2023/08/22 03:09:34;;;;;;;5.55;5.05;;;;;;;31.44;65.57;100821.09;4906242;28;65208;-39
2023/08/22 03:12:06;;;;;;;4.93;4.53;;;;;;;31.46;65.42;100814.41;4910019;28;70535;-39
2023/08/22 03:14:36;;;;;;;5.55;5.05;;;;;;;31.50;65.47;100818.31;4920051;28;66364;-38
2023/08/22 03:17:06;;;;;;;5.15;4.75;;;;;;;31.29;65.59;100791.66;4910902;28;70767;-38
2023/08/22 03:19:36;;;;;;;5.15;4.75;;;;;;;31.47;65.67;100799.78;4897784;28;66299;-38
2023/08/22 03:22:06;;;;;;;5.63;5.15;;;;;;;31.56;65.18;100809.25;4913391;28;69750;-38
2023/08/22 03:24:38;;;;;;;8.05;5.13;;;;;;;31.56;65.23;100813.88;4900978;28;66375;-38
2023/08/22 03:27:08;;;;;;;8.15;4.95;;;;;;;31.54;65.21;100799.72;4892829;28;69577;-38
2023/08/22 03:29:39;;;;;;;6.90;5.03;;;;;;;31.62;65.18;100815.66;4915007;28;66939;-39
2023/08/22 03:32:09;;;;;;;5.53;5.03;;;;;;;31.63;65.07;100809.22;4908905;28;69842;-38
2023/08/22 03:34:39;;;;;;;5.88;5.47;;;;;;;31.60;65.03;100805.06;4900889;28;66143;-40
2023/08/22 03:37:10;;;;;;;7.18;5.57;;;;;;;31.67;64.96;100815.81;4892258;28;70144;-38
2023/08/22 03:39:40;;;;;;;6.63;5.13;;;;;;;31.68;64.90;100805.78;4910361;28;65945;-38
2023/08/22 03:42:11;;;;;;;5.60;5.10;;;;;;;31.68;64.82;100805.78;4902978;28;69845;-39
2023/08/22 03:44:41;;;;;;;6.43;5.82;;;;;;;31.68;64.64;100813.94;4913915;28;65693;-40
2023/08/22 03:47:12;;;;;;;5.93;5.30;;;;;;;31.72;64.57;100807.00;4901741;28;69988;-38
2023/08/22 03:49:45;;;;;;;5.47;5.07;;;;;;;31.73;64.45;100803.22;4904949;28;65468;-38
2023/08/22 03:52:15;;;;;;;5.90;5.40;;;;;;;31.75;64.81;100795.69;4903707;28;69381;-39
2023/08/22 03:54:45;;;;;;;5.32;4.78;;;;;;;31.68;64.48;100790.38;4894870;28;66214;-38
2023/08/22 03:57:15;;;;;;;5.75;5.15;;;;;;;31.67;64.13;100782.44;4920089;28;69357;-39
2023/08/22 03:59:47;;;;;;;5.15;4.75;;;;;;;31.67;64.25;100768.91;4918274;28;66491;-40
2023/08/22 04:02:17;;;;;;;;;;;;;;;31.54;65.37;100795.13;4897181;28;70803;-39
2023/08/22 04:04:47;;;;;;;6.90;4.88;;;;;;;31.79;64.28;100791.50;4916463;28;66656;-41
2023/08/22 04:07:17;;;;;;;5.78;4.88;;;;;;;31.80;64.05;100783.09;4919035;28;70295;-46
2023/08/22 04:09:49;;;;;;;5.93;5.43;;;;;;;31.86;64.08;100792.22;4917949;28;66348;-40
2023/08/22 04:12:22;;;;;;;8.35;4.60;;;;;;;31.87;64.02;100783.00;4915022;28;44128;-39
2023/08/22 04:14:53;;;;;;;5.97;5.10;;;;;;;31.80;63.87;100766.00;4918078;28;66742;-40
2023/08/22 04:17:23;;;;;;;6.97;5.47;;;;;;;31.90;63.95;100771.72;4902658;28;70197;-39
2023/08/22 04:19:53;;;;;;;5.35;4.85;;;;;;;31.88;63.81;100762.97;4905509;28;65741;-39
2023/08/22 04:22:23;;;;;;;6.00;4.72;;;;;;;31.92;63.83;100764.19;4918566;28;70759;-38
2023/08/22 04:24:53;;;;;;;5.68;5.10;;;;;;;31.94;63.73;100764.81;4910921;28;65843;-39
2023/08/22 04:27:24;;;;;;;7.32;5.88;;;;;;;31.91;63.75;100767.13;4939348;28;70413;-40
2023/08/22 04:29:55;;;;;;;6.72;5.13;;;;;;;31.98;63.65;100762.44;4893722;28;65145;-41
2023/08/22 04:32:25;;;;;;;6.10;5.50;;;;;;;31.99;63.81;100759.50;4911169;28;70782;-39
2023/08/22 04:34:56;;;;;;;5.55;5.07;;;;;;;31.98;63.56;100751.59;4910736;28;66933;-40
2023/08/22 04:37:27;;;;;;;6.20;5.68;;;;;;;31.94;63.60;100740.38;4912189;28;69479;-39
2023/08/22 04:39:57;;;;;;;6.28;5.40;;;;;;;31.98;63.50;100735.31;4900964;28;66913;-39
2023/08/22 04:42:36;;;;;;;6.25;5.50;;;;;;;32.03;63.37;100739.00;4897509;28;70099;-40
2023/08/22 04:45:09;;;;;;;5.95;5.53;;;;;;;32.04;63.45;100740.66;4917261;28;66828;-39
2023/08/22 04:47:39;;;;;;;6.13;5.50;;;;;;;32.03;63.27;100722.72;4916348;28;69725;-40
2023/08/22 04:50:11;;;;;;;12.47;4.80;;;;;;;32.01;63.30;100710.44;4896932;28;65230;-40
2023/08/22 04:52:41;;;;;;;7.43;6.28;;;;;;;32.09;63.34;100715.53;4912217;28;69898;-39
2023/08/22 04:55:12;;;;;;;7.43;5.90;;;;;;;31.88;63.36;100664.50;4906540;28;66004;-39
2023/08/22 04:57:42;;;;;;;5.60;4.90;;;;;;;32.12;63.32;100719.66;4916510;28;70236;-39
2023/08/22 05:00:13;;;;;;;6.55;5.38;;;;;;;32.14;63.28;100701.28;4905662;28;66465;-40
2023/08/22 05:02:44;;;;;;;5.97;5.50;;;;;;;32.11;63.14;100696.31;4919601;28;71231;-39
2023/08/22 05:05:14;;;;;;;6.38;5.78;;;;;;;32.14;63.30;100690.41;4903902;28;65597;-39
2023/08/22 05:07:44;;;;;;;5.65;5.15;;;;;;;32.20;63.15;100694.91;4913248;28;70069;-39
2023/08/22 05:10:17;;;;;;;5.60;5.10;;;;;;;32.19;62.98;100676.97;4914798;28;66718;-39
2023/08/22 05:12:47;;;;;;;11.43;5.75;;;;;;;32.20;62.80;100684.03;4886843;28;70608;-39
2023/08/22 05:15:17;;;;;;;6.43;5.90;;;;;;;32.19;62.68;100669.66;4919672;28;66764;-40
2023/08/22 05:17:48;;;;;;;5.45;5.05;;;;;;;32.25;62.82;100667.91;4898173;28;69911;-41
2023/08/22 05:20:18;;;;;;;5.70;5.30;;;;;;;32.12;63.22;100647.22;4899521;28;66026;-40
2023/08/22 05:22:48;;;;;;;5.70;5.20;;;;;;;32.25;62.97;100667.91;4894212;28;69110;-40
2023/08/22 05:25:20;;;;;;;7.93;5.47;;;;;;;32.25;62.90;100660.56;4908436;28;67808;-40
2023/08/22 05:27:50;;;;;;;5.87;5.37;;;;;;;32.30;62.71;100661.78;4907425;28;71254;-38
2023/08/22 05:30:21;;;;;;;15.63;5.80;;;;;;;32.26;62.32;100639.69;4878760;28;65390;-39
2023/08/22 05:32:52;;;;;;;5.80;5.40;;;;;;;32.26;62.51;100631.53;4897117;28;69783;-39
2023/08/22 05:35:22;;;;;;;8.80;5.68;;;;;;;32.36;62.68;100647.25;4903842;28;66554;-40
2023/08/22 05:37:53;;;;;;;5.93;5.40;;;;;;;32.34;62.76;100636.63;4924732;28;69667;-39
2023/08/22 05:40:25;;;;;;;6.70;5.70;;;;;;;32.40;62.70;100627.56;4911023;28;65923;-40
2023/08/22 05:42:57;;;;;;;6.28;5.68;;;;;;;32.39;62.70;100628.59;4916205;28;70094;-38
2023/08/22 05:45:28;;;;;;;;;;;;;;;32.18;62.99;100621.03;4908876;28;65815;-40
2023/08/22 05:47:58;;;;;;;5.55;5.05;;;;;;;32.31;62.63;100609.13;4900290;28;69650;-39
2023/08/22 05:50:28;;;;;;;5.97;5.47;;;;;;;32.43;62.57;100621.63;4912150;28;66332;-39
2023/08/22 05:52:59;;;;;;;5.95;5.38;;;;;;;32.37;62.41;100603.56;4924631;28;68680;-39
2023/08/22 05:55:31;;;;;;;5.75;5.25;;;;;;;32.24;62.28;100571.25;4895870;28;65654;-40
2023/08/22 05:58:06;;;;;;;5.93;5.43;;;;;;;32.50;62.44;100607.97;4916628;28;70114;-39
2023/08/22 06:00:36;;;;;;;9.85;4.82;;;;;;;32.51;62.17;100608.78;4914450;28;66654;-38
2023/08/22 06:03:06;;;;;;;6.20;5.53;;;;;;;32.52;62.23;100605.03;4912276;28;69449;-39
2023/08/22 06:05:36;;;;;;;5.38;4.90;;;;;;;32.50;62.07;100607.97;4919992;28;65815;-39
2023/08/22 06:08:06;;;;;;;5.85;5.30;;;;;;;32.54;62.20;100608.31;4912275;28;69730;-39
2023/08/22 06:10:39;;;;;;;5.78;5.05;;;;;;;32.57;62.36;100596.97;4918379;28;66174;-39
2023/08/22 06:13:09;;;;;;;5.43;5.03;;;;;;;32.57;62.24;100597.81;4909724;28;70264;-39
2023/08/22 06:15:41;;;;;;;5.60;5.10;;;;;;;32.48;62.06;100580.22;4906104;28;66386;-40
2023/08/22 06:18:14;;;;;;;5.85;5.35;;;;;;;32.61;62.10;100584.56;4900756;28;70426;-39
2023/08/22 06:20:44;;;;;;;6.00;5.50;;;;;;;32.59;62.21;100583.97;4912453;28;66359;-39
2023/08/22 06:23:15;;;;;;;5.63;5.13;;;;;;;32.61;61.97;100577.25;4921882;28;69671;-39
2023/08/22 06:25:48;;;;;;;5.80;5.25;;;;;;;32.45;61.88;100537.22;4918761;28;65899;-40
2023/08/22 06:28:19;;;;;;;6.20;5.65;;;;;;;32.65;61.83;100573.00;4918119;28;70075;-39
2023/08/22 06:30:49;;;;;;;5.32;4.88;;;;;;;32.67;62.09;100567.31;4915838;28;66171;-39
2023/08/22 06:33:22;;;;;;;5.53;5.05;;;;;;;32.66;62.04;100546.66;4906265;28;70639;-39
2023/08/22 06:35:53;;;;;;;5.57;5.15;;;;;;;32.70;61.74;100550.53;4897415;28;65956;-40
2023/08/22 06:38:25;;;;;;;6.03;5.40;;;;;;;32.74;61.73;100549.00;4897768;28;70007;-39
2023/08/22 06:40:55;;;;;;;5.47;4.97;;;;;;;32.77;61.68;100548.53;4919976;28;65036;-38
2023/08/22 06:44:08;;;;;;;4.77;4.30;;;;;;;32.72;61.59;100523.97;4908499;28;69588;-39
2023/08/22 06:46:38;;;;;;;5.25;4.85;;;;;;;32.74;61.86;100505.53;4917298;28;66596;-39
2023/08/22 06:49:08;;;;;;;5.13;4.72;;;;;;;32.87;61.42;100520.72;4913443;28;70449;-39
2023/08/22 06:51:38;;;;;;;6.22;4.75;;;;;;;32.91;61.60;100524.63;4903907;28;66092;-39
2023/08/22 06:54:08;;;;;;;5.05;4.65;;;;;;;32.93;61.62;100523.31;4912178;28;70545;-40
2023/08/22 06:56:38;;;;;;;4.68;3.97;;;;;;;32.98;61.30;100516.31;4921146;28;66630;-42
2023/08/22 06:59:09;;;;;;;7.05;4.28;;;;;;;32.99;61.36;100518.78;4904344;28;69045;-39
2023/08/22 07:01:39;;;;;;;5.00;4.60;;;;;;;33.01;61.10;100505.78;4920548;28;66165;-40
2023/08/22 07:04:09;;;;;;;4.85;4.38;;;;;;;33.08;61.15;100505.66;4920375;28;69986;-40
2023/08/22 07:06:45;;;;;;;4.60;4.18;;;;;;;33.10;61.29;100498.09;4915782;28;65497;-40
2023/08/22 07:09:14;;;;;;;7.18;4.80;;;;;;;33.13;61.43;100503.03;4921345;28;69510;-39
2023/08/22 07:11:46;;;;;;;;;;;;;;;32.92;61.28;100491.75;4919134;28;66862;-40
2023/08/22 07:14:16;;;;;;;4.32;3.92;;;;;;;33.17;61.01;100481.63;4896596;28;69102;-41
2023/08/22 07:16:46;;;;;;;5.05;4.40;;;;;;;33.21;60.98;100489.06;4912726;28;65441;-40
2023/08/22 07:19:16;;;;;;;5.15;4.70;;;;;;;33.27;60.82;100482.63;4913635;28;70737;-41
2023/08/22 07:22:07;;;;;;;4.55;4.25;;;;;;;33.12;60.55;100453.28;4913306;28;65810;-40
2023/08/22 07:24:37;;;;;;;4.70;4.30;;;;;;;33.34;60.87;100466.97;4917336;28;68933;-38
2023/08/22 07:27:10;;;;;;;7.57;4.20;;;;;;;33.02;60.77;100411.53;4922593;28;65896;-39
2023/08/22 07:29:40;;;;;;;4.47;4.07;;;;;;;33.38;60.27;100459.97;4913627;28;69836;-39
2023/08/22 07:32:10;;;;;;;4.40;4.10;;;;;;;33.48;60.91;100474.78;4917459;28;66303;-40
2023/08/22 07:34:40;;;;;;;6.55;4.18;;;;;;;33.47;60.38;100465.00;4916168;28;69152;-39
2023/08/22 07:37:10;;;;;;;6.57;4.53;;;;;;;33.55;60.31;100459.16;4892925;28;66173;-39
2023/08/22 07:39:41;;;;;;;4.18;3.88;;;;;;;33.52;59.97;100441.47;4914358;28;69836;-40
2023/08/22 07:42:11;;;;;;;5.85;4.43;;;;;;;33.64;60.08;100456.84;4910982;28;65242;-39
2023/08/22 07:44:42;;;;;;;4.03;3.72;;;;;;;33.65;59.69;100453.88;4914080;28;70443;-39
2023/08/22 07:47:12;;;;;;;4.43;4.07;;;;;;;33.69;59.78;100452.31;4919799;28;65429;-39
2023/08/22 07:49:42;;;;;;;4.95;3.63;;;;;;;33.72;59.75;100435.50;4914349;28;70349;-39
2023/08/22 07:52:12;;;;;;;4.40;3.50;;;;;;;33.77;59.60;100430.13;4919391;28;66353;-39
2023/08/22 07:54:42;;;;;;;4.30;3.72;;;;;;;33.83;59.58;100435.63;4919201;28;70544;-39
2023/08/22 07:57:12;;;;;;;4.03;3.72;;;;;;;33.77;59.42;100415.69;4917357;28;66285;-39
2023/08/22 07:59:47;;;;;;;5.00;4.50;;;;;;;33.78;59.16;100412.72;4913773;28;70613;-39
2023/08/22 08:02:17;;;;;;;4.97;4.50;;;;;;;33.84;59.07;100404.63;4917434;28;65856;-39
2023/08/22 08:04:47;;;;;;;3.92;3.47;;;;;;;33.97;59.45;100426.03;4920494;28;69897;-40
2023/08/22 08:07:17;;;;;;;4.72;4.32;;;;;;;34.01;59.10;100421.72;4917263;28;65124;-39
2023/08/22 08:09:47;;;;;;;4.90;4.40;;;;;;;34.03;59.38;100400.53;4916156;28;69950;-39
2023/08/22 08:12:20;;;;;;;6.05;4.47;;;;;;;34.03;58.91;100392.34;4919476;28;65845;-39
2023/08/22 08:14:50;;;;;;;4.78;4.30;;;;;;;34.09;58.80;100396.81;4916705;28;70372;-38
2023/08/22 08:17:20;;;;;;;4.60;4.20;;;;;;;34.14;59.17;100405.03;4924327;28;66723;-39
2023/08/22 08:19:50;;;;;;;4.80;4.38;;;;;;;34.05;59.12;100384.81;4913301;28;70161;-39
2023/08/22 08:22:21;;;;;;;5.97;4.60;;;;;;;34.11;58.85;100394.66;4921623;28;66055;-38
2023/08/22 08:24:51;;;;;;;6.25;4.45;;;;;;;34.16;58.52;100396.63;4921271;28;70654;-39
2023/08/22 08:27:21;;;;;;;4.80;4.35;;;;;;;34.17;58.98;100403.72;4926216;28;66072;-40
2023/08/22 08:29:51;;;;;;;4.72;4.32;;;;;;;34.13;58.50;100397.97;4921080;28;69995;-40
2023/08/22 08:32:21;;;;;;;5.40;4.60;;;;;;;34.16;58.92;100407.53;4927008;28;65628;-39
2023/08/22 08:34:51;;;;;;;5.22;4.63;;;;;;;34.15;58.85;100414.84;4895861;28;70330;-39
2023/08/22 08:37:21;;;;;;;4.07;3.78;;;;;;;34.16;58.44;100407.53;4916720;28;66395;-39
2023/08/22 08:39:51;;;;;;;4.80;4.43;;;;;;;33.94;59.09;100372.13;4908696;28;69956;-40
2023/08/22 08:42:22;;;;;;;6.00;4.22;;;;;;;34.16;58.24;100402.91;4910581;28;66080;-40
2023/08/22 08:44:52;;;;;;;5.40;4.97;;;;;;;34.10;58.56;100387.59;4897703;28;70340;-40
2023/08/22 08:47:22;;;;;;;5.15;4.38;;;;;;;34.16;58.39;100394.72;4915569;28;66869;-39
2023/08/22 08:49:54;;;;;;;5.78;4.50;;;;;;;33.88;58.64;100329.56;4896378;28;70336;-40
2023/08/22 08:52:23;;;;;;;;;;;;;;;33.97;59.33;100377.06;4905982;28;66091;-41
2023/08/22 08:54:58;;;;;;;4.97;4.57;;;;;;;34.14;59.02;100405.03;4910599;28;69961;-41
2023/08/22 08:57:28;;;;;;;5.47;4.97;;;;;;;34.16;58.87;100423.84;4900175;28;66446;-41
2023/08/22 09:00:02;;;;;;;5.05;4.75;;;;;;;34.17;58.66;100442.63;4919908;28;70312;-41
2023/08/22 09:02:33;;;;;;;5.80;5.30;;;;;;;34.14;58.54;100448.59;4914608;28;65720;-41
2023/08/22 09:05:06;;;;;;;5.60;5.10;;;;;;;34.16;58.98;100468.22;4909385;28;69401;-41
2023/08/22 09:07:38;;;;;;;6.03;5.20;;;;;;;34.17;58.77;100461.69;4916324;28;66409;-42
2023/08/22 09:10:08;;;;;;;5.63;5.22;;;;;;;34.13;58.71;100454.28;4910665;28;69874;-40
2023/08/22 09:12:39;;;;;;;6.00;5.00;;;;;;;34.16;59.16;100451.06;4911626;28;66457;-40
2023/08/22 09:15:18;;;;;;;5.32;4.93;;;;;;;33.70;58.44;100380.50;4914530;28;69853;-40
2023/08/22 09:17:48;;;;;;;6.28;5.68;;;;;;;34.08;59.12;100433.28;4910980;28;66331;-40
2023/08/22 09:20:18;;;;;;;5.90;5.40;;;;;;;34.14;59.38;100436.88;4911610;28;70495;-39
2023/08/22 09:22:48;;;;;;;6.32;5.75;;;;;;;34.14;58.67;100436.88;4916057;28;66368;-40
2023/08/22 09:25:19;;;;;;;8.25;5.68;;;;;;;34.13;59.33;100441.50;4912618;28;69549;-40
2023/08/22 09:27:50;;;;;;;7.30;6.22;;;;;;;33.91;58.92;100449.63;4906051;28;65671;-39
2023/08/22 09:30:25;;;;;;;6.47;5.97;;;;;;;33.77;59.35;100453.78;4923408;28;69135;-39
2023/08/22 09:32:59;;;;;;;6.53;5.90;;;;;;;33.70;59.72;100453.13;4910943;28;65958;-38
2023/08/22 09:35:32;;;;;;;9.73;6.28;;;;;;;34.06;59.77;100521.69;4915206;28;70082;-39
2023/08/22 09:38:10;;;;;;;6.68;5.97;;;;;;;34.05;59.80;100531.75;4911235;28;65006;-38
2023/08/22 09:40:51;;;;;;;7.25;6.55;;;;;;;33.92;59.68;100545.69;4919898;28;70065;-38
2023/08/22 09:43:22;;;;;;;7.85;7.03;;;;;;;33.90;60.18;100542.38;4917528;28;66497;-38
2023/08/22 09:45:53;;;;;;;6.97;5.95;;;;;;;33.95;60.38;100566.94;4915745;28;69985;-39
2023/08/22 09:48:24;;;;;;;6.97;6.38;;;;;;;33.94;60.19;100576.19;4912716;28;66302;-40
2023/08/22 09:50:57;;;;;;;;;;;;;;;33.71;61.39;100588.91;4912422;28;70073;-39
2023/08/22 09:53:28;;;;;;;6.93;6.28;;;;;;;33.77;60.92;100568.03;4913900;28;66637;-39
2023/08/22 09:55:58;;;;;;;8.25;5.65;;;;;;;33.79;61.10;100580.34;4898736;28;70497;-40
2023/08/22 09:58:31;;;;;;;10.02;6.40;;;;;;;33.81;60.94;100597.22;4912827;28;65539;-40
2023/08/22 10:01:02;;;;;;;8.25;6.07;;;;;;;33.72;60.70;100582.38;4911719;28;69197;-39
2023/08/22 10:03:34;;;;;;;7.18;5.93;;;;;;;33.73;61.11;100588.63;4911178;28;65233;-39
2023/08/22 10:06:10;;;;;;;7.68;6.25;;;;;;;33.34;61.28;100502.28;4911964;28;69377;-39
2023/08/22 10:08:45;;;;;;;7.15;6.05;;;;;;;33.71;61.16;100548.09;4914863;28;65674;-38
2023/08/22 10:11:17;;;;;;;8.50;5.55;;;;;;;33.30;61.13;100501.16;4911301;28;69949;-39
2023/08/22 10:13:50;;;;;;;8.30;6.43;;;;;;;33.59;61.36;100563.66;4913059;28;65984;-40
2023/08/22 10:16:21;;;;;;;5.90;5.40;;;;;;;33.63;61.45;100555.81;4913810;28;70313;-39
2023/08/22 10:19:01;;;;;;;6.00;5.50;;;;;;;33.48;61.12;100537.34;4913030;28;66493;-39
2023/08/22 10:21:40;;;;;;;11.00;5.57;;;;;;;33.57;61.60;100547.59;4912868;28;70631;-39
2023/08/22 10:24:30;;;;;;;5.95;5.32;;;;;;;33.48;61.90;100559.09;4915708;28;65498;-39
2023/08/22 10:27:03;;;;;;;5.95;5.55;;;;;;;33.49;62.87;100577.03;4912587;28;68740;-40
2023/08/22 10:29:34;;;;;;;6.22;5.63;;;;;;;33.50;63.28;100581.44;4915868;28;66313;-40
2023/08/22 10:32:05;;;;;;;6.15;5.68;;;;;;;33.40;64.01;100589.38;4913699;28;67290;-40
2023/08/22 10:34:35;;;;;;;8.93;5.40;;;;;;;33.31;64.69;100608.81;4915025;28;65093;-40
2023/08/22 10:37:22;;;;;;;6.63;5.88;;;;;;;33.22;65.26;100645.63;4912974;28;69143;-40
2023/08/22 10:39:53;;;;;;;5.38;4.88;;;;;;;33.12;65.63;100631.81;4913233;28;65327;-40
2023/08/22 10:42:24;;;;;;;6.18;5.03;;;;;;;33.15;65.57;100632.19;4912022;28;70376;-40
2023/08/22 10:44:58;;;;;;;9.25;4.53;;;;;;;32.71;65.90;100568.50;4912760;28;64555;-41
2023/08/22 10:47:32;;;;;;;4.72;4.05;;;;;;;33.04;66.76;100629.47;4913290;28;69690;-39
2023/08/22 10:50:11;;;;;;;9.02;4.47;;;;;;;32.99;66.38;100634.78;4908057;28;65026;-40
2023/08/22 10:52:45;;;;;;;4.90;4.50;;;;;;;32.85;66.58;100621.47;4917466;28;70268;-40
2023/08/22 10:55:20;;;;;;;5.30;4.75;;;;;;;32.56;67.15;100595.31;4908026;28;65586;-39
2023/08/22 10:57:55;;;;;;;5.10;4.68;;;;;;;32.41;67.57;100602.03;4889886;28;69885;-40
2023/08/22 11:00:25;;;;;;;5.72;5.22;;;;;;;32.68;67.36;100664.84;4916483;28;66253;-40
2023/08/22 11:03:00;;;;;;;7.55;5.32;;;;;;;32.35;67.57;100616.56;4915986;28;70232;-40
2023/08/22 11:05:31;;;;;;;10.55;5.18;;;;;;;32.62;67.91;100667.69;4912105;28;65736;-40
2023/08/22 11:08:04;;;;;;;5.22;4.72;;;;;;;32.69;68.34;100687.41;4914956;28;70306;-40
2023/08/22 11:10:34;;;;;;;5.18;4.68;;;;;;;32.68;68.22;100685.75;4911092;28;66136;-41
2023/08/22 11:13:08;;;;;;;6.03;5.10;;;;;;;32.65;68.92;100684.34;4913044;28;69130;-40
2023/08/22 11:15:41;;;;;;;5.35;4.68;;;;;;;32.64;69.21;100676.44;4918724;28;66132;-42
2023/08/22 11:18:11;;;;;;;6.22;5.65;;;;;;;32.64;69.00;100684.56;4911384;28;69028;-39
2023/08/22 11:20:42;;;;;;;20.92;18.85;;;;;;;32.63;68.88;100686.47;4911639;28;66138;-39
2023/08/22 11:23:12;;;;;;;58.60;47.30;;;;;;;32.61;69.54;100676.91;4911654;28;70576;-39
2023/08/22 11:25:42;;;;;;;64.82;52.53;;;;;;;32.60;69.09;100688.84;4919367;28;65782;-40
2023/08/22 11:28:13;;;;;;;59.72;46.28;;;;;;;32.55;69.08;100686.00;4918064;28;70159;-42
2023/08/22 11:30:43;;;;;;;58.55;44.72;;;;;;;32.57;68.49;100678.41;4915229;28;66574;-40
2023/08/22 11:33:23;;;;;;;54.13;43.63;;;;;;;32.51;69.19;100679.38;4919590;28;70318;-42
2023/08/22 11:35:56;;;;;;;55.40;41.85;;;;;;;32.26;68.48;100645.09;4911878;28;65533;-42
2023/08/22 11:38:26;;;;;;;55.35;38.28;;;;;;;32.64;68.36;100717.97;4910925;28;69364;-41
2023/08/22 11:40:56;;;;;;;43.08;33.40;;;;;;;32.67;68.00;100711.25;4911194;28;66402;-42
2023/08/22 11:43:26;;;;;;;35.88;30.08;;;;;;;32.68;67.81;100710.19;4913815;28;69076;-40